Time;durP1;ratioP1;P1;durP2;ratioP2;P2;SDS_P1;SDS_P2;PMS_P1;PMS_P2;Temp;Humidity;BMP_temperature;BMP_pressure;BME280_temperature;BME280_humidity;BME280_pressure;Samples;Min_cycle;Max_cycle;Signal;HPM_P1;HPM_P2
2023/04/19 00:01:35;;;;;;;8.60;5.90;;;;;;;9.00;90.10;100166.72;5046753;28;20068;-59
2023/04/19 00:04:04;;;;;;;10.65;6.07;;;;;;;8.96;89.97;100164.66;5054079;28;20413;-59
2023/04/19 00:06:31;;;;;;;9.13;6.30;;;;;;;8.91;90.35;100162.63;5048881;28;20068;-59
2023/04/19 00:08:58;;;;;;;8.75;6.45;;;;;;;8.90;90.41;100157.47;5051511;28;20472;-59
2023/04/19 00:11:25;;;;;;;9.38;6.43;;;;;;;8.87;90.68;100157.91;5061337;28;20036;-59
2023/04/19 00:13:55;;;;;;;8.95;6.15;;;;;;;8.80;90.84;100155.22;5053541;28;20045;-59
2023/04/19 00:16:22;;;;;;;10.73;6.20;;;;;;;8.82;90.98;100162.00;5052161;28;20043;-59
2023/04/19 00:18:49;;;;;;;9.35;5.90;;;;;;;8.75;91.52;100150.50;5057317;28;20075;-59
2023/04/19 00:21:18;;;;;;;10.40;6.05;;;;;;;8.71;91.66;100157.31;5038308;28;20045;-59
2023/04/19 00:23:45;;;;;;;11.18;6.85;;;;;;;8.68;92.27;100156.88;5056088;28;20094;-59
2023/04/19 00:26:14;;;;;;;9.23;6.10;;;;;;;8.69;93.37;100151.34;5057520;28;20041;-59
2023/04/19 00:28:43;;;;;;;9.68;5.68;;;;;;;8.68;92.48;100147.03;5053523;28;20521;-59
2023/04/19 00:31:10;;;;;;;10.43;6.13;;;;;;;8.65;92.83;100150.13;5055125;28;20052;-59
2023/04/19 00:33:37;;;;;;;9.85;6.35;;;;;;;8.62;92.98;100150.53;5059945;28;20055;-59
2023/04/19 00:36:05;;;;;;;9.25;5.95;;;;;;;8.61;92.60;100144.38;5037794;28;20118;-58
2023/04/19 00:38:33;;;;;;;10.55;6.22;;;;;;;8.69;92.37;100148.69;5053237;28;20053;-59
2023/04/19 00:41:00;;;;;;;9.13;6.28;;;;;;;8.66;91.92;100134.88;5052603;28;20045;-59
2023/04/19 00:43:27;;;;;;;8.48;5.60;;;;;;;8.66;92.56;100141.06;5056347;28;20033;-59
2023/04/19 00:45:54;;;;;;;7.57;5.28;;;;;;;8.61;92.17;100143.53;5061528;28;20130;-59
2023/04/19 00:48:21;;;;;;;8.65;5.65;;;;;;;8.55;93.17;100141.69;5036104;28;20036;-59
2023/04/19 00:50:48;;;;;;;8.15;5.57;;;;;;;8.45;93.11;100138.63;5056486;28;20045;-59
2023/04/19 00:53:16;;;;;;;7.55;5.53;;;;;;;8.41;94.70;100138.19;5039487;28;20461;-59
2023/04/19 00:55:49;;;;;;;8.98;5.93;;;;;;;8.36;94.17;100138.81;5055938;28;20145;-59
2023/04/19 00:58:16;;;;;;;10.90;6.25;;;;;;;8.35;94.28;100139.00;5051702;28;20545;-59
2023/04/19 01:00:44;;;;;;;8.55;6.03;;;;;;;8.36;94.17;100130.78;5035712;28;20045;-59
2023/04/19 01:03:13;;;;;;;9.05;5.60;;;;;;;8.28;94.29;100125.63;5061486;28;20045;-59
2023/04/19 01:05:40;;;;;;;7.43;5.38;;;;;;;8.29;96.48;100119.28;5025132;28;20041;-59
2023/04/19 01:08:07;;;;;;;7.38;5.50;;;;;;;8.19;95.97;100118.88;5030994;28;20136;-59
2023/04/19 01:10:34;;;;;;;7.57;5.85;;;;;;;8.20;95.48;100125.84;5056318;28;20068;-59
2023/04/19 01:13:02;;;;;;;8.20;5.80;;;;;;;8.13;97.31;100125.84;5053381;28;20049;-59
2023/04/19 01:15:30;;;;;;;8.48;6.03;;;;;;;8.17;97.37;100124.41;5053253;28;20040;-59
2023/04/19 01:17:57;;;;;;;9.10;5.85;;;;;;;8.10;99.03;100120.09;5054078;28;20406;-58
2023/04/19 01:20:24;;;;;;;8.27;5.97;;;;;;;8.09;98.19;100115.78;5040634;28;20376;-59
2023/04/19 01:22:52;;;;;;;8.55;6.22;;;;;;;8.16;97.28;100127.28;5051930;28;20045;-59
2023/04/19 01:25:21;;;;;;;9.20;6.17;;;;;;;8.14;96.44;100116.81;5054497;28;20049;-59
2023/04/19 01:27:50;;;;;;;9.57;6.32;;;;;;;8.26;95.28;100125.00;5037424;28;20045;-60
2023/04/19 01:30:17;;;;;;;11.80;6.65;;;;;;;8.28;94.99;100122.97;5059385;28;20499;-59
2023/04/19 01:32:44;;;;;;;10.55;6.97;;;;;;;8.21;95.64;100122.13;5060504;28;20073;-59
2023/04/19 01:35:12;;;;;;;9.65;6.45;;;;;;;8.19;96.44;100119.69;5053835;28;20121;-59
2023/04/19 01:37:39;;;;;;;11.25;6.57;;;;;;;8.15;96.43;100113.09;5055073;28;20041;-59
2023/04/19 01:40:08;;;;;;;9.88;6.68;;;;;;;8.09;96.35;100118.47;5055156;28;20357;-59
2023/04/19 01:42:36;;;;;;;10.35;6.72;;;;;;;8.07;96.76;100107.16;5045671;28;20043;-58
2023/04/19 01:45:04;;;;;;;12.77;6.30;;;;;;;7.99;96.72;100098.31;5051095;28;20048;-59
2023/04/19 01:47:31;;;;;;;11.57;6.53;;;;;;;7.91;97.75;100097.69;5058009;28;20040;-59
2023/04/19 01:49:58;;;;;;;9.82;7.53;;;;;;;7.82;98.22;100102.41;5058381;28;20051;-59
2023/04/19 01:52:25;;;;;;;12.20;7.43;;;;;;;7.78;98.45;100091.28;5066059;28;20419;-59
2023/04/19 01:54:52;;;;;;;10.18;7.28;;;;;;;7.75;99.07;100090.88;5039874;28;20071;-59
2023/04/19 01:57:21;;;;;;;11.32;7.13;;;;;;;7.68;99.45;100090.06;5054306;28;20451;-59
2023/04/19 01:59:49;;;;;;;9.68;6.90;;;;;;;7.63;99.89;100092.50;5034948;28;20507;-59
2023/04/19 02:02:16;;;;;;;10.70;7.35;;;;;;;7.65;99.69;100091.28;5054972;28;20041;-59
2023/04/19 02:04:43;;;;;;;13.63;8.13;;;;;;;7.68;100.00;100090.88;5045154;28;20128;-59
2023/04/19 02:07:10;;;;;;;12.80;8.35;;;;;;;7.64;100.00;100086.97;5048781;28;20049;-58
2023/04/19 02:09:37;;;;;;;11.40;8.40;;;;;;;7.67;100.00;100083.09;5057927;28;20333;-59
2023/04/19 02:12:04;;;;;;;13.27;8.95;;;;;;;7.66;100.00;100081.41;5053042;28;20545;-59
2023/04/19 02:14:33;;;;;;;13.10;8.85;;;;;;;7.71;100.00;100068.28;5054800;28;20114;-59
2023/04/19 02:17:00;;;;;;;14.27;9.02;;;;;;;7.72;100.00;100070.78;5057747;28;20044;-59
2023/04/19 02:19:27;;;;;;;12.55;8.95;;;;;;;7.70;100.00;100069.34;5042972;28;20051;-58
2023/04/19 02:21:56;;;;;;;14.60;9.77;;;;;;;7.62;100.00;100061.53;5052808;28;20049;-59
2023/04/19 02:24:23;;;;;;;15.13;9.73;;;;;;;7.54;100.00;100071.34;5056775;28;20797;-59
2023/04/19 02:26:50;;;;;;;14.48;10.02;;;;;;;7.66;100.00;100062.75;5035022;28;20048;-59
2023/04/19 02:29:18;;;;;;;16.27;10.27;;;;;;;7.66;100.00;100060.94;5060183;28;20426;-59
2023/04/19 02:31:46;;;;;;;18.80;10.80;;;;;;;7.66;100.00;100060.94;5065106;28;20045;-59
2023/04/19 02:34:13;;;;;;;13.85;10.00;;;;;;;7.64;100.00;100067.47;5059835;28;20503;-59
2023/04/19 02:36:40;;;;;;;14.40;9.63;;;;;;;7.62;100.00;100064.19;5056890;28;20037;-58
2023/04/19 02:39:07;;;;;;;14.43;9.88;;;;;;;7.66;100.00;100068.09;5057994;28;20080;-59
2023/04/19 02:41:38;;;;;;;14.48;10.13;;;;;;;7.61;100.00;100063.34;5044190;28;20060;-59
2023/04/19 02:44:05;;;;;;;17.88;10.07;;;;;;;7.56;100.00;100050.66;5039624;28;20036;-59
2023/04/19 02:46:32;;;;;;;18.13;10.65;;;;;;;7.54;100.00;100065.22;5053154;28;20552;-59
2023/04/19 02:49:02;;;;;;;15.93;10.13;;;;;;;7.44;100.00;100062.94;5043622;28;20564;-59
2023/04/19 02:51:29;;;;;;;17.90;10.57;;;;;;;7.34;100.00;100059.81;5041007;28;20040;-59
2023/04/19 02:53:57;;;;;;;17.67;11.13;;;;;;;7.30;100.00;100061.25;5039410;28;20072;-59
2023/04/19 02:56:24;;;;;;;19.27;12.57;;;;;;;7.41;100.00;100067.81;5051911;28;20505;-59
2023/04/19 02:58:53;;;;;;;17.10;11.27;;;;;;;7.50;100.00;100069.28;5036155;28;20040;-59
2023/04/19 03:01:20;;;;;;;18.67;11.52;;;;;;;7.46;100.00;100071.56;5058747;28;20423;-59
2023/04/19 03:03:47;;;;;;;18.08;12.63;;;;;;;7.55;100.00;100056.97;5054266;28;20044;-59
2023/04/19 03:06:15;;;;;;;19.15;12.13;;;;;;;7.57;100.00;100065.63;5039729;28;20044;-59
2023/04/19 03:08:43;;;;;;;17.35;11.57;;;;;;;7.52;100.00;100065.41;5059655;28;20478;-59
2023/04/19 03:11:11;;;;;;;17.73;11.60;;;;;;;7.50;100.00;100069.28;5055275;28;20069;-59
2023/04/19 03:13:38;;;;;;;21.60;12.80;;;;;;;7.60;100.00;100060.91;5064172;28;20384;-59
2023/04/19 03:16:06;;;;;;;20.00;12.93;;;;;;;7.61;100.00;100057.19;5050543;28;20053;-59
2023/04/19 03:18:33;;;;;;;22.77;13.30;;;;;;;7.69;100.00;100054.34;5052824;28;20582;-59
2023/04/19 03:21:03;;;;;;;21.10;12.32;;;;;;;7.62;100.00;100049.00;5037240;28;20138;-59
2023/04/19 03:23:37;;;;;;;21.40;13.43;;;;;;;7.69;100.00;100055.19;5046138;28;20402;-59
2023/04/19 03:26:05;;;;;;;20.48;13.00;;;;;;;7.80;100.00;100051.06;5021277;28;20061;-59
2023/04/19 03:28:38;;;;;;;22.65;13.75;;;;;;;7.78;100.00;100053.13;5045832;28;20058;-59
2023/04/19 03:31:40;;;;;;;20.27;13.48;;;;;;;7.71;100.00;100050.47;5030920;28;20068;-58
2023/04/19 03:34:10;;;;;;;21.85;13.63;;;;;;;7.78;100.00;100050.44;5046092;28;20057;-59
2023/04/19 03:36:40;;;;;;;;;;;;;;;7.99;100.00;100052.94;5045058;28;20040;-59
2023/04/19 03:39:09;;;;;;;20.63;12.88;;;;;;;7.87;100.00;100041.22;5054920;28;19971;-59
2023/04/19 03:41:40;;;;;;;22.55;13.85;;;;;;;7.79;100.00;100036.09;5042749;28;20064;-59
2023/04/19 03:44:27;;;;;;;24.02;14.05;;;;;;;7.77;100.00;100043.47;5053587;28;20576;-59
2023/04/19 03:46:54;;;;;;;19.63;13.20;;;;;;;7.90;100.00;100035.47;5039870;28;20056;-59
2023/04/19 03:49:25;;;;;;;21.50;14.07;;;;;;;7.92;100.00;100035.28;5036878;28;20048;-59
2023/04/19 03:52:02;;;;;;;22.27;13.82;;;;;;;7.91;100.00;100046.97;5040819;28;20041;-59
2023/04/19 03:54:30;;;;;;;22.05;14.10;;;;;;;7.88;100.00;100042.84;5053128;28;20044;-59
2023/04/19 03:56:59;;;;;;;22.05;13.60;;;;;;;7.94;100.00;100036.72;5054047;28;20042;-59
2023/04/19 03:59:26;;;;;;;21.80;12.85;;;;;;;7.97;100.00;100038.97;5043028;28;20562;-59
2023/04/19 04:01:54;;;;;;;22.85;13.77;;;;;;;7.97;100.00;100035.47;5045091;28;20479;-59
2023/04/19 04:04:21;;;;;;;19.15;13.70;;;;;;;8.00;100.00;100041.22;5042131;28;20048;-59
2023/04/19 04:06:49;;;;;;;19.17;13.30;;;;;;;8.07;100.00;100037.75;5050354;28;20392;-59
2023/04/19 04:09:17;;;;;;;22.90;13.82;;;;;;;8.10;100.00;100037.31;5040058;28;20041;-58
2023/04/19 04:11:45;;;;;;;20.85;13.75;;;;;;;8.05;100.00;100039.78;5034796;28;20048;-59
2023/04/19 04:14:13;;;;;;;22.08;13.02;;;;;;;8.10;100.00;100040.00;5036117;28;20086;-59
2023/04/19 04:16:40;;;;;;;19.30;12.75;;;;;;;8.03;100.00;100033.81;5046148;28;20048;-59
2023/04/19 04:19:08;;;;;;;20.08;13.00;;;;;;;8.06;100.00;100036.06;5041599;28;20444;-58
2023/04/19 04:21:38;;;;;;;20.98;12.55;;;;;;;8.10;100.00;100040.00;5025112;28;20033;-59
2023/04/19 04:24:08;;;;;;;21.23;12.73;;;;;;;8.09;100.00;100041.84;5052585;28;20040;-59
2023/04/19 04:26:42;;;;;;;23.27;14.77;;;;;;;8.05;100.00;100039.78;5035431;28;20139;-59
2023/04/19 04:29:18;;;;;;;21.15;13.30;;;;;;;8.05;100.00;100042.47;5057692;28;20044;-59
2023/04/19 04:31:46;;;;;;;21.75;13.23;;;;;;;8.03;100.00;100045.31;5031879;28;20099;-59
2023/04/19 04:34:15;;;;;;;20.17;13.03;;;;;;;7.97;100.00;100044.31;5039423;28;20451;-59
2023/04/19 04:36:50;;;;;;;18.75;12.45;;;;;;;8.02;100.00;100042.88;5042404;28;20045;-59
2023/04/19 04:39:18;;;;;;;24.00;14.40;;;;;;;7.98;100.00;100053.94;5036291;28;20045;-59
2023/04/19 04:41:46;;;;;;;30.33;15.18;;;;;;;8.03;100.00;100045.31;5034694;28;20077;-59
2023/04/19 04:44:14;;;;;;;21.65;13.88;;;;;;;8.09;100.00;100049.84;5036821;28;20046;-59
2023/04/19 04:46:44;;;;;;;22.80;14.63;;;;;;;8.13;100.00;100051.06;5041434;28;20094;-59
2023/04/19 04:49:15;;;;;;;23.17;14.38;;;;;;;8.16;100.00;100057.84;5038355;28;20048;-58
2023/04/19 04:51:42;;;;;;;24.50;14.50;;;;;;;8.06;100.00;100050.25;5040380;28;20037;-58
2023/04/19 04:54:10;;;;;;;28.83;14.63;;;;;;;8.07;100.00;100046.56;5034635;28;20400;-58
2023/04/19 04:56:37;;;;;;;23.00;14.57;;;;;;;8.11;100.00;100052.31;5036634;28;20432;-58
2023/04/19 04:59:04;;;;;;;24.83;14.27;;;;;;;8.19;100.00;100054.78;5034065;28;20037;-59
2023/04/19 05:01:35;;;;;;;23.88;15.00;;;;;;;8.25;100.00;100045.94;5044634;28;20554;-60
2023/04/19 05:04:04;;;;;;;24.63;14.85;;;;;;;8.34;100.00;100042.03;5045445;28;20336;-59
2023/04/19 05:06:32;;;;;;;23.17;13.60;;;;;;;8.28;100.00;100053.53;5041172;28;20072;-59
2023/04/19 05:09:00;;;;;;;28.58;14.50;;;;;;;8.29;100.00;100044.50;5032805;28;20069;-58
2023/04/19 05:11:32;;;;;;;43.47;14.70;;;;;;;8.26;100.00;100044.88;5042428;28;20075;-60
2023/04/19 05:13:59;;;;;;;31.45;14.90;;;;;;;8.27;100.00;100043.06;5057808;28;20440;-60
2023/04/19 05:16:27;;;;;;;23.75;13.60;;;;;;;8.24;100.00;100049.63;5045958;28;20150;-60
2023/04/19 05:18:54;;;;;;;24.13;13.98;;;;;;;8.23;100.00;100047.97;5038195;28;20064;-59
2023/04/19 05:21:23;;;;;;;29.77;13.38;;;;;;;8.13;100.00;100044.91;5043947;28;20041;-60
2023/04/19 05:23:52;;;;;;;23.52;13.23;;;;;;;7.91;100.00;100036.28;5041634;28;20124;-60
2023/04/19 05:26:19;;;;;;;32.17;14.02;;;;;;;7.95;100.00;100037.53;5050492;28;20060;-60
2023/04/19 05:28:48;;;;;;;25.83;12.82;;;;;;;7.95;100.00;100033.00;5044637;28;20515;-59
2023/04/19 05:31:29;;;;;;;22.90;13.68;;;;;;;7.90;100.00;100045.34;5043155;28;20042;-59
2023/04/19 05:34:13;;;;;;;28.83;14.50;;;;;;;7.95;100.00;100038.34;5039999;28;20388;-60
2023/04/19 05:36:42;;;;;;;25.75;13.98;;;;;;;8.02;100.00;100043.69;5039628;28;20136;-60
2023/04/19 05:39:09;;;;;;;24.75;14.35;;;;;;;7.94;100.00;100042.06;5044378;28;20044;-58
2023/04/19 05:41:36;;;;;;;24.88;12.98;;;;;;;7.94;100.00;100039.38;5040857;28;20045;-58
2023/04/19 05:44:03;;;;;;;22.63;13.93;;;;;;;7.93;100.00;100035.06;5040686;28;20495;-60
2023/04/19 05:46:31;;;;;;;22.25;12.98;;;;;;;7.94;100.00;100036.72;5055956;28;20049;-59
2023/04/19 05:48:58;;;;;;;26.20;13.75;;;;;;;7.95;100.00;100034.84;5036941;28;20419;-58
2023/04/19 05:51:46;;;;;;;25.42;13.95;;;;;;;8.05;100.00;100037.13;5034183;28;20100;-58
2023/04/19 05:54:26;;;;;;;26.98;13.65;;;;;;;8.13;100.00;100031.56;5027371;28;20206;-58
2023/04/19 05:56:54;;;;;;;26.77;14.27;;;;;;;8.19;100.00;100031.56;5035043;28;20037;-60
2023/04/19 05:59:21;;;;;;;24.15;12.93;;;;;;;8.10;100.00;100032.78;5037706;28;20141;-60
2023/04/19 06:01:48;;;;;;;27.88;13.10;;;;;;;8.12;100.00;100035.28;5031821;28;20641;-60
2023/04/19 06:04:15;;;;;;;21.63;13.63;;;;;;;8.10;100.00;100040.81;5030014;28;20049;-59
2023/04/19 06:06:42;;;;;;;24.73;13.25;;;;;;;8.16;100.00;100048.00;5043080;28;20048;-60
2023/04/19 06:09:11;;;;;;;21.83;12.77;;;;;;;8.20;100.00;100040.38;5034747;28;20515;-58
2023/04/19 06:11:38;;;;;;;20.30;13.50;;;;;;;8.28;100.00;100040.16;5037494;28;20051;-58
2023/04/19 06:14:05;;;;;;;20.20;13.35;;;;;;;8.25;100.00;100047.78;5037274;28;20115;-59
2023/04/19 06:16:33;;;;;;;21.33;12.73;;;;;;;8.33;100.00;100040.38;5039241;28;20659;-59
2023/04/19 06:19:00;;;;;;;17.73;11.88;;;;;;;8.49;100.00;100038.34;5036994;28;20360;-59
2023/04/19 06:21:30;;;;;;;18.60;12.38;;;;;;;8.55;100.00;100038.31;5032972;28;20133;-59
2023/04/19 06:23:59;;;;;;;20.73;12.30;;;;;;;8.70;100.00;100035.38;5037086;28;20056;-59
2023/04/19 06:26:28;;;;;;;21.65;13.10;;;;;;;8.65;100.00;100032.53;5038070;28;20053;-59
2023/04/19 06:28:55;;;;;;;17.02;11.35;;;;;;;8.73;100.00;100024.28;5034745;28;20573;-58
2023/04/19 06:31:22;;;;;;;22.75;12.10;;;;;;;8.70;100.00;100030.03;5043314;28;20159;-58
2023/04/19 06:33:49;;;;;;;19.02;11.70;;;;;;;8.62;100.00;100038.28;5044918;28;20041;-58
2023/04/19 06:36:16;;;;;;;21.38;12.25;;;;;;;8.64;100.00;100041.59;5034852;28;20072;-58
2023/04/19 06:38:45;;;;;;;18.13;12.10;;;;;;;8.62;100.00;100033.78;5039134;28;20041;-58
2023/04/19 06:41:12;;;;;;;20.33;12.23;;;;;;;8.55;100.00;100042.84;5036062;28;20045;-59
2023/04/19 06:43:41;;;;;;;19.80;13.40;;;;;;;8.57;100.00;100046.94;5042015;28;20061;-59
2023/04/19 06:46:08;;;;;;;19.70;12.48;;;;;;;8.58;100.00;100042.41;5039756;28;20045;-59
2023/04/19 06:48:35;;;;;;;17.00;12.23;;;;;;;8.64;100.00;100038.91;5033082;28;20149;-60
2023/04/19 06:51:03;;;;;;;20.30;11.57;;;;;;;8.72;100.00;100038.69;5035883;28;20145;-59
2023/04/19 06:53:30;;;;;;;21.00;12.48;;;;;;;8.72;100.00;100038.69;5033192;28;20145;-60
2023/04/19 06:55:58;;;;;;;18.10;12.02;;;;;;;8.90;100.00;100043.34;5036158;28;20127;-60
2023/04/19 06:58:25;;;;;;;19.02;10.98;;;;;;;8.93;100.00;100045.59;5032979;28;20463;-60
2023/04/19 07:00:54;;;;;;;18.67;11.07;;;;;;;8.95;100.00;100054.22;5030691;28;20384;-60
2023/04/19 07:03:21;;;;;;;17.60;11.15;;;;;;;9.10;100.00;100043.25;5032147;28;20099;-60
2023/04/19 07:05:48;;;;;;;16.13;11.52;;;;;;;9.14;99.84;100047.16;5036505;28;20059;-61
2023/04/19 07:08:15;;;;;;;19.00;11.65;;;;;;;9.15;98.60;100043.44;5040536;28;20129;-60
2023/04/19 07:10:43;;;;;;;17.23;11.23;;;;;;;9.09;99.15;100036.28;5030890;28;20459;-58
2023/04/19 07:13:10;;;;;;;17.90;11.35;;;;;;;9.06;99.25;100034.00;5029276;28;20046;-60
2023/04/19 07:15:37;;;;;;;17.95;11.15;;;;;;;9.17;98.82;100036.03;5037272;28;20143;-61
2023/04/19 07:18:06;;;;;;;19.17;10.77;;;;;;;9.34;98.37;100033.69;5035478;28;20041;-58
2023/04/19 07:20:33;;;;;;;20.45;11.95;;;;;;;9.57;96.79;100033.13;5032700;28;20462;-60
2023/04/19 07:23:00;;;;;;;23.30;12.10;;;;;;;9.74;96.25;100029.94;5031868;28;20041;-60
2023/04/19 07:25:27;;;;;;;21.73;13.75;;;;;;;9.94;94.58;100025.25;5030926;28;20083;-60
2023/04/19 07:27:55;;;;;;;19.60;11.35;;;;;;;9.88;93.78;100036.81;5039192;28;20499;-58
2023/04/19 07:30:22;;;;;;;21.42;11.93;;;;;;;9.94;93.17;100038.63;5055817;28;20090;-58
2023/04/19 07:32:52;;;;;;;20.00;11.52;;;;;;;10.02;92.00;100029.50;5053310;28;20037;-58
2023/04/19 07:35:21;;;;;;;18.27;11.05;;;;;;;10.56;90.04;100031.47;5053703;28;20073;-58
2023/04/19 07:37:48;;;;;;;18.15;11.73;;;;;;;11.36;84.65;100029.69;5052057;28;20053;-58
2023/04/19 07:40:15;;;;;;;20.17;11.55;;;;;;;10.82;86.78;100032.22;5056946;28;20444;-58
2023/04/19 07:42:42;;;;;;;16.75;10.85;;;;;;;11.13;85.17;100028.53;5056127;28;20446;-59
2023/04/19 07:45:10;;;;;;;18.15;12.27;;;;;;;11.33;85.33;100030.13;5040221;28;20041;-59
2023/04/19 07:47:37;;;;;;;18.77;11.77;;;;;;;11.21;84.46;100025.53;5055788;28;20086;-59
2023/04/19 07:50:06;;;;;;;17.63;10.75;;;;;;;11.27;83.26;100021.13;5051747;28;20037;-59
2023/04/19 07:52:35;;;;;;;18.20;11.10;;;;;;;11.04;83.32;100026.41;5059849;28;20051;-59
2023/04/19 07:55:02;;;;;;;21.58;11.88;;;;;;;11.06;83.49;100021.59;5058157;28;20198;-59
2023/04/19 07:57:30;;;;;;;29.02;17.38;;;;;;;11.18;83.56;100019.78;5053391;28;20378;-59
2023/04/19 07:59:58;;;;;;;20.08;15.05;;;;;;;11.14;82.73;100013.25;5054054;28;20040;-59
2023/04/19 08:02:26;;;;;;;22.33;12.98;;;;;;;11.30;82.17;100007.25;5050017;28;20058;-59
2023/04/19 08:04:53;;;;;;;33.53;23.85;;;;;;;11.25;82.53;100015.16;5054741;28;20033;-59
2023/04/19 08:07:21;;;;;;;17.92;10.52;;;;;;;11.22;81.84;100012.94;5053597;28;20056;-59
2023/04/19 08:09:50;;;;;;;18.38;11.20;;;;;;;11.55;81.45;100001.72;5056319;28;20125;-58
2023/04/19 08:12:18;;;;;;;21.92;11.50;;;;;;;12.55;78.75;99997.34;5023806;28;20040;-58
2023/04/19 08:14:46;;;;;;;20.10;11.85;;;;;;;13.44;73.41;99993.44;5056830;28;20041;-58
2023/04/19 08:17:15;;;;;;;16.80;10.57;;;;;;;13.13;74.75;99998.25;5054728;28;20048;-58
2023/04/19 08:19:42;;;;;;;15.75;11.55;;;;;;;12.67;75.22;99995.44;5053916;28;20044;-59
2023/04/19 08:22:10;;;;;;;20.55;10.35;;;;;;;12.79;74.93;99992.75;5056854;28;20048;-58
2023/04/19 08:24:37;;;;;;;19.27;10.30;;;;;;;12.66;74.58;99996.50;5054084;28;20065;-58
2023/04/19 08:27:06;;;;;;;16.15;10.50;;;;;;;12.26;74.26;100002.66;5056294;28;20040;-60
2023/04/19 08:29:33;;;;;;;17.00;10.00;;;;;;;12.17;75.16;100005.91;5054780;28;20041;-60
2023/04/19 08:32:00;;;;;;;21.67;11.18;;;;;;;13.10;74.10;99994.16;5051161;28;20531;-59
2023/04/19 08:34:27;;;;;;;15.40;10.50;;;;;;;14.71;68.14;99997.28;5050799;28;20559;-60
2023/04/19 08:36:54;;;;;;;15.68;9.95;;;;;;;14.59;66.83;99999.28;5051123;28;20403;-59
2023/04/19 08:39:21;;;;;;;16.30;9.73;;;;;;;14.91;64.46;99996.72;5056853;28;20128;-59
2023/04/19 08:41:49;;;;;;;14.30;10.32;;;;;;;13.42;69.92;99996.38;5050532;28;20049;-59
2023/04/19 08:44:18;;;;;;;13.02;9.63;;;;;;;13.23;69.95;99993.06;5055672;28;20029;-58
2023/04/19 08:46:45;;;;;;;17.15;9.77;;;;;;;12.85;71.04;99990.97;5050259;28;20079;-58
2023/04/19 08:49:12;;;;;;;16.80;9.95;;;;;;;13.08;71.30;99993.59;5054248;28;20436;-58
2023/04/19 08:51:39;;;;;;;17.20;9.50;;;;;;;13.75;68.91;99990.22;5051112;28;20258;-58
2023/04/19 08:54:07;;;;;;;19.23;8.93;;;;;;;12.78;71.58;99984.91;5050829;28;20514;-58
2023/04/19 08:56:34;;;;;;;15.98;9.10;;;;;;;12.30;72.71;99985.00;5046338;28;20072;-59
2023/04/19 08:59:01;;;;;;;13.25;9.43;;;;;;;12.00;73.55;99984.28;5054995;28;20041;-58
2023/04/19 09:01:29;;;;;;;14.00;9.80;;;;;;;12.08;74.13;99983.94;5048675;28;20052;-59
2023/04/19 09:03:56;;;;;;;18.95;10.20;;;;;;;12.22;73.64;99971.09;5059808;28;20120;-58
2023/04/19 09:06:23;;;;;;;14.43;9.63;;;;;;;14.38;65.62;99966.63;5053269;28;20048;-58
2023/04/19 09:08:56;;;;;;;13.18;8.68;;;;;;;13.95;64.03;99978.09;5037343;28;20063;-59
2023/04/19 09:11:35;;;;;;;14.80;8.85;;;;;;;14.46;63.60;99974.25;5047602;28;20143;-58
2023/04/19 09:14:07;;;;;;;13.52;9.05;;;;;;;13.57;66.07;99958.94;5052954;28;20107;-58
2023/04/19 09:16:38;;;;;;;12.73;8.32;;;;;;;14.35;62.95;99967.13;5058124;28;20033;-59
2023/04/19 09:19:05;;;;;;;;;;;;;;;13.42;65.16;99964.06;5054218;28;20036;-59
2023/04/19 09:21:32;;;;;;;16.75;8.63;;;;;;;13.56;66.23;99962.69;5056876;28;20010;-59
2023/04/19 09:23:59;;;;;;;15.57;8.75;;;;;;;12.74;68.70;99969.25;5057388;28;20067;-58
2023/04/19 09:26:28;;;;;;;14.25;9.07;;;;;;;13.03;68.06;99955.81;5051031;28;20644;-59
2023/04/19 09:28:56;;;;;;;13.57;8.80;;;;;;;13.42;67.70;99964.06;5053610;28;20434;-58
2023/04/19 09:31:24;;;;;;;12.15;7.50;;;;;;;12.56;69.38;99966.72;5056277;28;20047;-58
2023/04/19 09:33:53;;;;;;;10.27;7.53;;;;;;;12.50;70.45;99956.91;5057754;28;20194;-58
2023/04/19 09:36:27;;;;;;;11.75;8.05;;;;;;;12.68;69.83;99958.59;5052165;28;20514;-58
2023/04/19 09:38:54;;;;;;;16.15;7.80;;;;;;;12.83;69.27;99952.72;5057926;28;20190;-58
2023/04/19 09:41:21;;;;;;;11.57;8.25;;;;;;;12.61;69.80;99952.56;5043030;28;20051;-58
2023/04/19 09:43:48;;;;;;;16.40;8.75;;;;;;;13.24;68.36;99943.53;5051044;28;20041;-58
2023/04/19 09:46:32;;;;;;;14.38;7.97;;;;;;;13.57;67.29;99947.34;5055904;28;20041;-58
2023/04/19 09:49:22;;;;;;;12.50;8.25;;;;;;;14.42;63.87;99942.66;5050950;28;20472;-58
2023/04/19 09:51:50;;;;;;;14.88;9.07;;;;;;;14.32;63.46;99935.25;5053335;28;20267;-58
2023/04/19 09:54:18;;;;;;;13.25;7.93;;;;;;;14.09;63.40;99935.47;5058915;28;20091;-58
2023/04/19 09:56:45;;;;;;;11.88;6.95;;;;;;;14.74;61.35;99936.59;5062319;28;20043;-58
2023/04/19 09:59:12;;;;;;;11.80;7.32;;;;;;;15.00;59.78;99929.56;5057441;28;20059;-58
2023/04/19 10:01:40;;;;;;;12.85;7.60;;;;;;;14.96;59.88;99925.78;5055961;28;20120;-58
2023/04/19 10:04:07;;;;;;;11.63;6.80;;;;;;;16.00;56.40;99926.38;5055529;28;20041;-58
2023/04/19 10:06:36;;;;;;;14.80;7.03;;;;;;;16.52;54.67;99918.25;5051382;28;20040;-59
2023/04/19 10:09:03;;;;;;;11.27;7.03;;;;;;;16.44;55.08;99916.06;5041164;28;20110;-59
2023/04/19 10:11:35;;;;;;;13.20;7.82;;;;;;;16.32;55.22;99923.56;5059953;28;20426;-58
2023/04/19 10:14:02;;;;;;;10.90;6.30;;;;;;;15.40;55.86;99925.63;5058296;28;20493;-58
2023/04/19 10:16:30;;;;;;;9.68;6.20;;;;;;;14.31;58.38;99928.22;5053072;28;20163;-59
2023/04/19 10:18:57;;;;;;;8.75;6.50;;;;;;;15.39;57.18;99916.72;5057025;28;20076;-58
2023/04/19 10:21:24;;;;;;;9.40;6.40;;;;;;;14.97;56.62;99912.00;5064828;28;20098;-59
2023/04/19 10:23:52;;;;;;;10.98;6.13;;;;;;;13.78;59.74;99929.66;5060905;28;20044;-58
2023/04/19 10:26:19;;;;;;;11.43;5.93;;;;;;;13.39;61.59;99921.47;5057289;28;20040;-60
2023/04/19 10:28:47;;;;;;;9.30;6.30;;;;;;;14.64;59.78;99900.31;5056334;28;20092;-58
2023/04/19 10:31:14;;;;;;;10.88;6.30;;;;;;;15.00;57.82;99903.41;5056292;28;20405;-60
2023/04/19 10:33:41;;;;;;;9.85;6.47;;;;;;;15.19;56.77;99900.34;5054456;28;20047;-58
2023/04/19 10:36:09;;;;;;;10.85;6.15;;;;;;;15.85;55.68;99908.16;5058028;28;20143;-58
2023/04/19 10:38:37;;;;;;;7.40;5.63;;;;;;;15.86;53.73;99902.50;5059217;28;20523;-58
2023/04/19 10:41:10;;;;;;;9.18;5.80;;;;;;;15.77;53.05;99897.84;5058208;28;20041;-59
2023/04/19 10:43:38;;;;;;;9.20;5.75;;;;;;;15.74;53.99;99901.88;5057039;28;20048;-59
2023/04/19 10:46:07;;;;;;;12.93;6.25;;;;;;;15.35;54.79;99898.56;5056302;28;20041;-59
2023/04/19 10:48:36;;;;;;;7.67;5.43;;;;;;;14.60;56.39;99892.97;5056269;28;20040;-59
2023/04/19 10:51:13;;;;;;;7.45;5.35;;;;;;;14.78;54.53;99889.16;5054149;28;20304;-60
2023/04/19 10:53:50;;;;;;;7.65;4.82;;;;;;;14.57;54.21;99878.13;5056330;28;20521;-60
2023/04/19 10:56:19;;;;;;;16.23;5.00;;;;;;;14.76;54.55;99881.31;5056343;28;20043;-60
2023/04/19 10:59:12;;;;;;;10.95;5.15;;;;;;;14.87;52.82;99876.81;5055276;28;20068;-58
2023/04/19 11:01:41;;;;;;;9.00;4.65;;;;;;;14.71;53.24;99877.75;5049501;28;20045;-60
2023/04/19 11:04:09;;;;;;;7.80;4.82;;;;;;;14.13;53.66;99882.72;5046571;28;20064;-58
2023/04/19 11:06:37;;;;;;;7.85;4.90;;;;;;;14.52;51.79;99872.66;5031477;28;20044;-58
2023/04/19 11:09:06;;;;;;;8.88;4.70;;;;;;;15.45;50.57;99868.94;5033906;28;20045;-58
2023/04/19 11:11:39;;;;;;;6.07;4.45;;;;;;;14.85;50.59;99870.84;5053501;28;20141;-58
2023/04/19 11:14:06;;;;;;;8.02;4.40;;;;;;;14.61;49.56;99865.78;5037919;28;20650;-58
2023/04/19 11:16:33;;;;;;;7.88;4.10;;;;;;;14.61;49.60;99867.66;5051096;28;20055;-59
2023/04/19 11:19:01;;;;;;;6.97;4.38;;;;;;;14.67;48.55;99863.94;5045280;28;20044;-58
2023/04/19 11:21:28;;;;;;;6.43;4.70;;;;;;;14.84;47.39;99861.94;5038244;28;20036;-59
2023/04/19 11:24:14;;;;;;;8.73;4.30;;;;;;;14.62;46.63;99867.38;5052470;28;20113;-58
2023/04/19 11:26:44;;;;;;;6.85;3.72;;;;;;;14.63;44.03;99866.34;5044168;28;20275;-58